createdAt,value
2017-06-28T00:00:34.076Z,77.50
2017-06-28T00:03:02.561Z,77.80
2017-06-28T00:05:31.030Z,77.50
2017-06-28T00:07:59.525Z,77.50
2017-06-28T00:10:28.147Z,77.80
2017-06-28T00:12:56.652Z,77.20
2017-06-28T00:15:25.191Z,76.70
2017-06-28T00:17:53.690Z,76.90
2017-06-28T00:20:22.245Z,77.10
2017-06-28T00:22:50.722Z,77.30
2017-06-28T00:25:19.234Z,77.00
2017-06-28T00:27:47.730Z,77.00
2017-06-28T00:30:16.490Z,77.20
2017-06-28T00:32:44.974Z,77.60
2017-06-28T00:35:13.559Z,77.50
2017-06-28T00:37:42.082Z,77.00
2017-06-28T00:40:10.601Z,77.50
2017-06-28T00:42:39.279Z,77.30
2017-06-28T00:45:08.514Z,77.50
2017-06-28T00:47:37.271Z,77.50
2017-06-28T00:50:05.846Z,77.50
2017-06-28T00:52:34.367Z,77.60
2017-06-28T00:55:02.838Z,77.80
2017-06-28T00:57:31.322Z,77.70
2017-06-28T01:00:00.010Z,77.40
2017-06-28T01:02:28.494Z,77.30
2017-06-28T01:04:57.078Z,77.10
2017-06-28T01:07:25.601Z,77.50
2017-06-28T01:09:54.186Z,77.70
2017-06-28T01:12:22.700Z,78.00
2017-06-28T01:14:51.981Z,77.80
2017-06-28T01:17:20.491Z,77.80
2017-06-28T01:19:49.749Z,77.60
2017-06-28T01:22:18.222Z,77.50
2017-06-28T01:24:46.719Z,78.20
2017-06-28T01:27:15.204Z,78.50
2017-06-28T01:29:43.721Z,77.90
2017-06-28T01:32:13.046Z,77.90
2017-06-28T01:34:41.513Z,77.80
2017-06-28T01:37:10.138Z,77.70
2017-06-28T01:39:38.828Z,77.50
2017-06-28T01:42:07.313Z,77.50
2017-06-28T01:44:35.788Z,77.60
2017-06-28T01:47:04.451Z,77.70
2017-06-28T01:49:32.946Z,78.10
2017-06-28T01:52:01.855Z,78.10
2017-06-28T01:54:30.372Z,78.10
2017-06-28T01:56:58.840Z,78.20
2017-06-28T01:59:27.280Z,79.00
2017-06-28T02:01:55.740Z,77.70
2017-06-28T02:04:24.223Z,77.10
2017-06-28T02:06:52.690Z,76.90
2017-06-28T02:09:21.917Z,77.00
2017-06-28T02:11:50.399Z,77.00
2017-06-28T02:14:19.032Z,77.00
2017-06-28T02:16:47.878Z,76.30
2017-06-28T02:19:16.603Z,76.30
2017-06-28T02:21:45.053Z,76.40
2017-06-28T02:24:13.513Z,76.80
2017-06-28T02:26:41.996Z,76.10
2017-06-28T02:29:11.217Z,76.30
2017-06-28T02:31:39.801Z,76.30
2017-06-28T02:34:08.314Z,76.50
2017-06-28T02:36:36.844Z,76.10
2017-06-28T02:39:05.448Z,76.30
2017-06-28T02:41:34.035Z,76.20
2017-06-28T02:44:02.557Z,76.10
2017-06-28T02:46:31.061Z,76.20
2017-06-28T02:48:59.562Z,76.20
2017-06-28T02:51:28.042Z,76.30
2017-06-28T02:53:57.189Z,76.60
2017-06-28T02:56:25.682Z,76.70
2017-06-28T02:58:54.166Z,76.60
2017-06-28T03:01:22.637Z,76.60
2017-06-28T03:03:51.195Z,77.00
2017-06-28T03:06:19.837Z,77.10
2017-06-28T03:08:48.334Z,77.00
2017-06-28T03:11:16.855Z,77.00
2017-06-28T03:13:45.340Z,77.20
2017-06-28T03:16:13.897Z,77.20
2017-06-28T03:18:42.394Z,77.20
2017-06-28T03:21:10.897Z,77.20
2017-06-28T03:23:39.394Z,77.20
2017-06-28T03:26:07.993Z,77.60
2017-06-28T03:28:36.530Z,77.50
2017-06-28T03:31:04.969Z,77.60
2017-06-28T03:33:33.765Z,77.30
2017-06-28T03:36:02.387Z,77.50
2017-06-28T03:38:30.860Z,77.40
2017-06-28T03:40:59.313Z,77.30
2017-06-28T03:43:27.793Z,77.50
2017-06-28T03:45:57.165Z,78.20
2017-06-28T03:48:25.602Z,77.20
2017-06-28T03:50:54.122Z,77.00
2017-06-28T03:53:22.716Z,77.00
2017-06-28T03:55:51.198Z,77.30
2017-06-28T03:58:19.829Z,76.20
2017-06-28T04:00:48.537Z,76.60
2017-06-28T04:03:17.033Z,76.60
2017-06-28T04:05:45.656Z,76.40
2017-06-28T04:08:14.115Z,76.30
2017-06-28T04:10:43.401Z,77.00
2017-06-28T04:13:12.104Z,76.80
2017-06-28T04:15:40.707Z,77.00
2017-06-28T04:18:09.359Z,76.30
2017-06-28T04:20:38.128Z,75.70
2017-06-28T04:23:06.617Z,75.60
2017-06-28T04:25:35.096Z,75.20
2017-06-28T04:28:03.600Z,75.50
2017-06-28T04:30:32.078Z,74.70
2017-06-28T04:33:00.755Z,74.80
2017-06-28T04:35:29.273Z,75.00
2017-06-28T04:37:57.741Z,74.20
2017-06-28T04:40:26.177Z,74.20
2017-06-28T04:42:55.633Z,74.70
2017-06-28T04:45:24.116Z,74.70
2017-06-28T04:47:52.578Z,73.30
2017-06-28T04:50:21.072Z,73.80
2017-06-28T04:52:49.558Z,73.60
2017-06-28T04:55:18.029Z,72.60
2017-06-28T04:57:46.580Z,73.30
2017-06-28T05:00:15.097Z,73.10
2017-06-28T05:02:43.827Z,73.00
2017-06-28T05:05:12.284Z,73.30
2017-06-28T05:07:40.761Z,74.00
2017-06-28T05:10:09.220Z,74.50
2017-06-28T05:12:37.683Z,74.70
2017-06-28T05:15:06.393Z,75.10
2017-06-28T05:17:35.022Z,74.80
2017-06-28T05:20:03.668Z,74.50
2017-06-28T05:22:32.122Z,73.70
2017-06-28T05:25:00.608Z,73.60
2017-06-28T05:27:29.791Z,71.40
2017-06-28T05:29:58.983Z,68.90
2017-06-28T05:32:28.163Z,68.90
2017-06-28T05:34:56.745Z,66.10
2017-06-28T05:37:25.215Z,65.50
2017-06-28T05:39:53.684Z,65.50
2017-06-28T05:42:22.153Z,66.10
2017-06-28T05:44:50.658Z,66.20
2017-06-28T05:47:19.425Z,65.10
2017-06-28T05:49:49.250Z,66.50
2017-06-28T05:52:17.857Z,68.20
2017-06-28T05:54:46.329Z,68.20
2017-06-28T05:57:14.829Z,68.70
2017-06-28T05:59:43.395Z,69.40
2017-06-28T06:02:12.108Z,68.80
2017-06-28T06:04:40.627Z,68.80
2017-06-28T06:07:09.112Z,68.00
2017-06-28T06:09:38.161Z,66.80
2017-06-28T06:12:06.644Z,68.40
2017-06-28T06:14:35.121Z,67.40
2017-06-28T06:17:03.584Z,67.00
2017-06-28T06:19:32.196Z,67.60
2017-06-28T06:22:00.629Z,65.90
2017-06-28T06:24:30.408Z,66.20
2017-06-28T06:26:58.913Z,67.60
2017-06-28T06:29:27.426Z,67.70
2017-06-28T06:31:56.217Z,66.50
2017-06-28T06:34:24.729Z,66.50
2017-06-28T06:36:53.489Z,65.70
2017-06-28T06:39:21.991Z,65.40
2017-06-28T06:41:50.452Z,65.50
2017-06-28T06:44:18.957Z,66.10
2017-06-28T06:46:47.401Z,65.10
2017-06-28T06:49:15.852Z,65.00
2017-06-28T06:51:44.336Z,64.70
2017-06-28T06:54:13.717Z,64.00
2017-06-28T06:56:46.158Z,64.00
2017-06-28T06:59:14.973Z,64.50
2017-06-28T07:01:43.454Z,63.70
2017-06-28T07:04:12.132Z,61.90
2017-06-28T07:06:40.762Z,61.70
2017-06-28T07:09:10.024Z,59.50
2017-06-28T07:11:38.500Z,59.40
2017-06-28T07:14:07.143Z,56.20
2017-06-28T07:16:35.605Z,56.40
2017-06-28T07:19:04.365Z,55.90
2017-06-28T07:21:33.000Z,56.00
2017-06-28T07:24:02.293Z,57.20
2017-06-28T07:26:31.536Z,58.00
2017-06-28T07:29:00.044Z,58.00
2017-06-28T07:31:28.533Z,56.80
2017-06-28T07:33:57.098Z,55.80
2017-06-28T07:36:26.048Z,54.40
2017-06-28T07:38:54.901Z,53.10
2017-06-28T07:41:24.766Z,50.80
2017-06-28T07:43:53.217Z,52.60
2017-06-28T07:46:21.693Z,48.70
2017-06-28T07:48:50.772Z,47.60
2017-06-28T07:51:19.248Z,48.30
2017-06-28T07:53:47.814Z,48.60
2017-06-28T07:56:18.108Z,47.00
2017-06-28T07:58:46.560Z,47.20
2017-06-28T08:01:15.053Z,46.10
2017-06-28T08:03:43.561Z,47.40
2017-06-28T08:06:12.013Z,47.70
2017-06-28T08:08:40.675Z,46.20
2017-06-28T08:11:09.143Z,47.80
2017-06-28T08:13:37.652Z,47.50
2017-06-28T08:16:06.125Z,47.50
2017-06-28T08:18:35.419Z,47.20
2017-06-28T08:21:03.992Z,45.30
2017-06-28T08:23:32.489Z,45.00
2017-06-28T08:26:00.976Z,47.30
2017-06-28T08:28:29.473Z,46.10
2017-06-28T08:30:58.081Z,44.80
2017-06-28T08:33:26.616Z,44.30
2017-06-28T08:35:55.241Z,43.30
2017-06-28T08:38:23.880Z,43.00
2017-06-28T08:40:52.376Z,41.40
2017-06-28T08:43:20.445Z,40.00
2017-06-28T08:45:48.965Z,40.30
2017-06-28T08:48:17.436Z,40.80
2017-06-28T08:50:46.060Z,41.60
2017-06-28T08:53:14.601Z,43.70
2017-06-28T08:55:43.089Z,42.30
2017-06-28T08:58:12.472Z,42.20
2017-06-28T09:00:40.945Z,42.30
2017-06-28T09:03:09.597Z,40.90
2017-06-28T09:05:38.049Z,40.90
2017-06-28T09:08:07.411Z,41.40
2017-06-28T09:10:35.991Z,40.90
2017-06-28T09:13:04.553Z,42.80
2017-06-28T09:15:33.044Z,42.70
2017-06-28T09:18:01.497Z,41.80
2017-06-28T09:20:30.975Z,41.40
2017-06-28T09:22:59.448Z,40.40
2017-06-28T09:25:28.116Z,41.10
2017-06-28T09:27:56.594Z,42.50
2017-06-28T09:30:25.196Z,41.80
2017-06-28T09:32:53.779Z,43.90
2017-06-28T09:35:22.281Z,44.90
2017-06-28T09:37:50.765Z,43.60
2017-06-28T09:40:19.518Z,42.80
2017-06-28T09:42:47.983Z,44.10
2017-06-28T09:45:16.450Z,42.40
2017-06-28T09:47:44.938Z,41.90
2017-06-28T09:50:13.523Z,42.70
2017-06-28T09:52:41.976Z,42.70
2017-06-28T09:55:11.330Z,43.70
2017-06-28T09:57:40.029Z,43.70
2017-06-28T10:00:08.525Z,44.20
2017-06-28T10:02:37.002Z,45.60
2017-06-28T10:05:05.504Z,44.40
2017-06-28T10:07:34.820Z,45.10
2017-06-28T10:10:09.322Z,45.00
2017-06-28T10:12:38.876Z,45.00
2017-06-28T10:15:07.634Z,44.70
2017-06-28T10:17:36.872Z,44.80
2017-06-28T10:20:05.365Z,44.80
2017-06-28T10:22:33.844Z,44.50
2017-06-28T10:25:02.415Z,45.90
2017-06-28T10:27:31.098Z,45.50
2017-06-28T10:42:49.434Z,47.30
2017-06-28T10:45:17.928Z,45.70
2017-06-28T10:47:46.937Z,44.30
2017-06-28T10:50:15.817Z,44.80
2017-06-28T10:52:44.490Z,43.60
2017-06-28T10:55:13.074Z,44.50
2017-06-28T10:57:41.909Z,46.00
2017-06-28T11:00:10.441Z,42.90
2017-06-28T11:02:38.419Z,42.80
2017-06-28T11:05:06.284Z,42.80
2017-06-28T11:07:34.766Z,41.80
2017-06-28T11:10:07.957Z,42.50
2017-06-28T11:12:40.409Z,41.20
2017-06-28T11:15:08.881Z,40.80
2017-06-28T11:17:38.141Z,42.00
2017-06-28T11:20:06.605Z,41.80
2017-06-28T11:22:35.145Z,43.40
2017-06-28T11:25:03.668Z,41.10
2017-06-28T11:27:31.533Z,42.10
2017-06-28T11:30:00.349Z,41.60
2017-06-28T11:32:28.346Z,42.60
2017-06-28T11:34:56.205Z,39.40
2017-06-28T11:37:24.044Z,38.70
2017-06-28T11:39:51.870Z,38.60
2017-06-28T11:42:20.481Z,38.00
2017-06-28T11:44:48.908Z,38.00
2017-06-28T11:47:18.891Z,38.20
2017-06-28T11:49:46.785Z,37.40
2017-06-28T11:52:14.749Z,36.20
2017-06-28T11:54:42.825Z,37.80
2017-06-28T11:57:10.681Z,35.30
2017-06-28T11:59:39.192Z,37.80
2017-06-28T12:02:07.748Z,38.60
2017-06-28T12:04:36.232Z,37.60
2017-06-28T12:07:04.713Z,38.90
2017-06-28T12:09:32.648Z,38.60
2017-06-28T12:12:01.104Z,38.20
2017-06-28T12:14:30.521Z,36.70
2017-06-28T12:16:59.536Z,39.00
2017-06-28T12:19:27.406Z,38.90
2017-06-28T12:21:55.562Z,37.40
2017-06-28T12:24:23.443Z,37.60
2017-06-28T12:26:51.557Z,38.90
2017-06-28T12:29:19.432Z,39.00
2017-06-28T12:31:47.285Z,39.20
2017-06-28T12:34:15.746Z,39.80
2017-06-28T12:36:44.226Z,40.70
2017-06-28T12:39:12.749Z,41.80
2017-06-28T12:41:41.241Z,42.30
2017-06-28T12:44:09.692Z,42.70
2017-06-28T12:46:38.283Z,42.10
2017-06-28T12:49:06.770Z,42.10
2017-06-28T12:51:35.319Z,42.40
2017-06-28T12:54:03.176Z,44.00
2017-06-28T12:56:31.649Z,43.80
2017-06-28T12:59:00.274Z,44.20
2017-06-28T13:01:28.797Z,44.00
2017-06-28T13:03:57.313Z,43.90
2017-06-28T13:06:25.814Z,46.00
2017-06-28T13:08:54.382Z,43.90
2017-06-28T13:11:22.903Z,44.20
2017-06-28T13:13:52.077Z,44.30
2017-06-28T13:16:20.573Z,44.20
2017-06-28T13:18:49.197Z,45.90
2017-06-28T13:21:18.654Z,46.10
2017-06-28T13:23:47.151Z,46.40
2017-06-28T13:26:15.819Z,47.00
2017-06-28T13:28:44.292Z,48.20
2017-06-28T13:31:12.873Z,47.00
2017-06-28T13:33:41.381Z,46.00
2017-06-28T13:36:09.901Z,47.50
2017-06-28T13:38:38.903Z,49.70
2017-06-28T13:41:08.138Z,49.30
2017-06-28T13:43:36.796Z,49.20
2017-06-28T13:46:06.176Z,50.40
2017-06-28T13:48:34.738Z,50.30
2017-06-28T13:51:03.646Z,50.40
2017-06-28T13:53:32.100Z,49.90
2017-06-28T13:56:00.666Z,51.10
2017-06-28T13:58:29.165Z,51.30
2017-06-28T14:00:57.664Z,50.60
2017-06-28T14:03:26.817Z,50.40
2017-06-28T14:05:55.388Z,50.10
2017-06-28T14:08:23.973Z,50.50
2017-06-28T14:10:52.487Z,51.10
2017-06-28T14:13:21.406Z,50.90
2017-06-28T14:15:49.964Z,51.60
2017-06-28T14:18:18.505Z,52.90
2017-06-28T14:20:47.124Z,58.40
2017-06-28T14:23:15.672Z,61.80
2017-06-28T14:25:44.159Z,62.30
2017-06-28T14:28:13.386Z,69.00
2017-06-28T14:30:41.925Z,68.90
2017-06-28T14:33:10.420Z,68.80
2017-06-28T14:35:39.662Z,70.30
2017-06-28T14:38:08.166Z,70.10
2017-06-28T14:40:37.231Z,70.00
2017-06-28T14:43:06.025Z,71.00
2017-06-28T14:45:35.534Z,75.60
2017-06-28T14:48:04.434Z,76.40
2017-06-28T14:50:32.951Z,74.80
2017-06-28T14:53:01.721Z,78.40
2017-06-28T14:55:30.218Z,76.40
2017-06-28T14:57:58.745Z,76.00
2017-06-28T15:00:27.346Z,76.00
2017-06-28T15:02:56.034Z,77.70
2017-06-28T15:05:24.574Z,77.10
2017-06-28T15:07:53.237Z,77.90
2017-06-28T15:10:22.053Z,79.50
2017-06-28T15:12:52.168Z,80.50
2017-06-28T15:15:20.801Z,80.10
2017-06-28T15:17:49.402Z,80.30
2017-06-28T15:20:18.072Z,81.60
2017-06-28T15:22:46.906Z,83.50
2017-06-28T15:25:15.686Z,82.40
2017-06-28T15:27:44.354Z,84.00
2017-06-28T15:30:34.082Z,83.40
2017-06-28T15:33:02.700Z,83.90
2017-06-28T15:35:31.588Z,85.20
2017-06-28T15:38:08.147Z,86.70
2017-06-28T15:40:37.320Z,87.90
2017-06-28T15:43:07.224Z,89.10
2017-06-28T15:45:36.409Z,89.10
2017-06-28T15:48:05.275Z,89.00
2017-06-28T15:50:33.989Z,87.50
2017-06-28T15:53:12.904Z,88.80
2017-06-28T15:55:50.791Z,87.30
2017-06-28T15:58:20.130Z,89.30
2017-06-28T16:00:49.675Z,88.80
2017-06-28T16:03:18.313Z,88.20
2017-06-28T16:05:46.924Z,88.20
2017-06-28T16:08:15.558Z,88.00
2017-06-28T16:10:44.157Z,86.90
2017-06-28T16:13:12.848Z,87.00
2017-06-28T16:15:41.417Z,86.30
2017-06-28T16:18:10.286Z,86.00
2017-06-28T16:20:38.915Z,87.00
2017-06-28T16:23:07.678Z,86.30
2017-06-28T16:25:36.213Z,85.20
2017-06-28T16:28:05.518Z,84.40
2017-06-28T16:30:35.382Z,85.00
2017-06-28T16:33:05.337Z,84.30
2017-06-28T16:35:34.956Z,85.90
2017-06-28T16:38:03.661Z,85.70
2017-06-28T16:40:33.183Z,84.90
2017-06-28T16:43:06.087Z,84.80
2017-06-28T16:45:35.623Z,85.30
2017-06-28T16:48:04.505Z,86.70
2017-06-28T16:50:33.360Z,87.20
2017-06-28T16:53:01.941Z,87.60
2017-06-28T16:55:30.751Z,87.10
2017-06-28T16:57:59.560Z,87.30
2017-06-28T17:00:28.362Z,88.20
2017-06-28T17:02:57.357Z,88.20
2017-06-28T17:05:28.152Z,87.80
2017-06-28T17:07:57.166Z,88.10
2017-06-28T17:10:26.680Z,88.00
2017-06-28T17:12:55.655Z,87.50
2017-06-28T17:15:24.654Z,87.60
2017-06-28T17:17:53.550Z,88.70
2017-06-28T17:20:23.508Z,89.20
2017-06-28T17:22:52.876Z,88.60
2017-06-28T17:25:22.238Z,88.00
2017-06-28T17:27:51.141Z,88.10
2017-06-28T17:30:20.466Z,88.70
2017-06-28T17:32:50.140Z,87.10
2017-06-28T17:35:23.739Z,87.40
2017-06-28T17:37:52.906Z,86.50
2017-06-28T17:40:22.298Z,87.10
2017-06-28T17:42:52.271Z,87.60
2017-06-28T17:45:21.305Z,87.60
2017-06-28T17:47:50.312Z,87.10
2017-06-28T17:50:19.233Z,87.80
2017-06-28T17:52:48.091Z,88.20
2017-06-28T17:55:16.661Z,88.00
2017-06-28T17:57:46.998Z,87.90
2017-06-28T18:00:16.997Z,88.00
2017-06-28T18:02:46.772Z,87.20
2017-06-28T18:05:16.551Z,87.30
2017-06-28T18:07:46.233Z,88.20
2017-06-28T18:12:53.231Z,88.60
2017-06-28T18:15:23.050Z,88.10
2017-06-28T18:17:52.549Z,88.30
2017-06-28T18:20:21.709Z,87.70
2017-06-28T18:22:50.671Z,87.20
2017-06-28T18:25:19.879Z,87.80
2017-06-28T18:27:48.849Z,88.30
2017-06-28T18:30:17.724Z,88.80
2017-06-28T18:32:46.824Z,88.90
2017-06-28T18:35:15.685Z,89.40
2017-06-28T18:37:44.807Z,88.10
2017-06-28T18:40:13.548Z,87.10
2017-06-28T18:42:43.313Z,88.30
2017-06-28T18:45:12.402Z,87.90
2017-06-28T18:47:42.118Z,87.60
2017-06-28T18:50:12.136Z,88.10
2017-06-28T18:52:42.063Z,88.10
2017-06-28T18:55:10.940Z,88.30
2017-06-28T18:57:39.560Z,88.10
2017-06-28T19:00:08.233Z,87.50
2017-06-28T19:02:36.767Z,89.60
2017-06-28T19:05:05.299Z,89.30
2017-06-28T19:07:33.851Z,88.80
2017-06-28T19:10:02.780Z,89.60
2017-06-28T19:12:31.546Z,89.30
2017-06-28T19:15:00.219Z,89.20
2017-06-28T19:17:28.762Z,89.70
2017-06-28T19:19:57.295Z,90.90
2017-06-28T19:22:25.888Z,90.70
2017-06-28T19:24:55.010Z,91.10
2017-06-28T19:27:23.768Z,91.60
2017-06-28T19:29:52.541Z,92.10
2017-06-28T19:32:21.077Z,92.00
2017-06-28T19:34:49.629Z,92.20
2017-06-28T19:37:18.172Z,91.10
2017-06-28T19:39:47.716Z,92.20
2017-06-28T19:42:16.489Z,91.70
2017-06-28T19:44:45.098Z,92.10
2017-06-28T19:47:13.640Z,91.80
2017-06-28T19:49:42.183Z,92.50
2017-06-28T19:52:10.850Z,92.30
2017-06-28T19:54:39.636Z,92.70
2017-06-28T19:57:08.680Z,93.00
2017-06-28T19:59:37.347Z,92.90
2017-06-28T20:02:06.109Z,93.20
2017-06-28T20:04:34.631Z,93.50
2017-06-28T20:07:03.376Z,94.10
2017-06-28T20:09:32.067Z,94.20
2017-06-28T20:12:02.729Z,94.50
2017-06-28T20:14:31.279Z,94.60
2017-06-28T20:17:00.070Z,94.10
2017-06-28T20:19:28.671Z,94.40
2017-06-28T20:21:57.230Z,94.20
2017-06-28T20:24:25.955Z,93.80
2017-06-28T20:26:54.649Z,93.00
2017-06-28T20:29:23.332Z,93.00
2017-06-28T20:31:51.913Z,93.30
2017-06-28T20:34:20.543Z,93.00
2017-06-28T20:36:49.853Z,92.30
2017-06-28T20:39:18.381Z,92.30
2017-06-28T20:41:47.404Z,92.70
2017-06-28T20:44:16.074Z,93.10
2017-06-28T20:46:44.853Z,92.90
2017-06-28T20:49:13.835Z,92.80
2017-06-28T20:51:42.403Z,93.20
2017-06-28T20:54:10.987Z,93.20
2017-06-28T20:56:39.553Z,93.50
2017-06-28T20:59:08.250Z,93.10
2017-06-28T21:01:37.915Z,93.00
2017-06-28T21:04:06.767Z,93.00
2017-06-28T21:06:35.408Z,92.60
2017-06-28T21:09:04.451Z,93.10
2017-06-28T21:11:33.038Z,93.50
2017-06-28T21:14:01.613Z,93.50
2017-06-28T21:16:30.134Z,93.80
2017-06-28T21:18:58.732Z,93.90
2017-06-28T21:21:27.469Z,94.20
2017-06-28T21:23:56.319Z,94.00
2017-06-28T21:26:25.616Z,93.70
2017-06-28T21:28:54.250Z,93.70
2017-06-28T21:31:23.133Z,94.30
2017-06-28T21:33:51.667Z,94.60
2017-06-28T21:36:20.642Z,94.10
2017-06-28T21:38:49.294Z,94.50
2017-06-28T21:41:17.886Z,95.30
2017-06-28T21:43:46.372Z,95.80
2017-06-28T21:46:14.974Z,96.10
2017-06-28T21:48:43.743Z,96.60
2017-06-28T21:51:12.431Z,96.50
2017-06-28T21:53:41.545Z,96.60
2017-06-28T21:56:12.680Z,96.90
2017-06-28T21:58:44.906Z,97.00
2017-06-28T22:01:13.602Z,96.20
2017-06-28T22:03:42.969Z,95.30
2017-06-28T22:06:11.493Z,95.30
2017-06-28T22:08:39.974Z,95.80
2017-06-28T22:11:08.497Z,96.30
2017-06-28T22:13:37.731Z,96.60
2017-06-28T22:16:06.631Z,96.00
2017-06-28T22:18:48.737Z,96.40
2017-06-28T22:21:17.691Z,96.70
2017-06-28T22:23:46.491Z,97.00
2017-06-28T22:26:16.166Z,95.90
2017-06-28T22:28:44.751Z,96.20
2017-06-28T22:31:13.378Z,95.30
2017-06-28T22:33:41.867Z,95.50
2017-06-28T22:36:10.324Z,95.30
2017-06-28T22:38:38.821Z,93.80
2017-06-28T22:41:07.389Z,93.40
2017-06-28T22:43:36.054Z,93.40
2017-06-28T22:46:04.668Z,93.00
2017-06-28T22:48:33.121Z,92.50
2017-06-28T22:51:02.143Z,92.60
2017-06-28T22:53:30.706Z,92.90
2017-06-28T22:55:59.370Z,93.30
2017-06-28T22:58:43.357Z,93.20
2017-06-28T23:01:12.123Z,93.30
2017-06-28T23:03:41.041Z,93.60
2017-06-28T23:06:09.628Z,93.70
2017-06-28T23:08:38.620Z,93.80
2017-06-28T23:11:07.117Z,93.60
2017-06-28T23:13:35.607Z,93.40
2017-06-28T23:16:04.245Z,94.20
2017-06-28T23:18:32.710Z,94.50
2017-06-28T23:21:01.241Z,95.00
2017-06-28T23:23:29.769Z,94.70
2017-06-28T23:25:58.313Z,95.10
2017-06-28T23:28:26.808Z,94.90
2017-06-28T23:30:55.289Z,95.10
2017-06-28T23:33:23.845Z,95.40
2017-06-28T23:35:52.313Z,95.40
2017-06-28T23:38:20.842Z,95.20
2017-06-28T23:40:49.329Z,95.60
2017-06-28T23:43:17.825Z,95.30
2017-06-28T23:45:46.438Z,95.00
2017-06-28T23:48:15.046Z,95.20
2017-06-28T23:50:43.639Z,95.70
2017-06-28T23:53:12.119Z,95.40
2017-06-28T23:55:40.605Z,95.70
2017-06-28T23:58:09.199Z,95.60
